sensor_id;sensor_type;location;lat;lon;timestamp;temperature;humidity
43999;DHT22;51319;52.162;5.302;2023-08-08T00:00:45;14.80;99.90
43999;DHT22;51319;52.162;5.302;2023-08-08T00:03:13;14.90;99.90
43999;DHT22;51319;52.162;5.302;2023-08-08T00:05:40;14.90;99.90
43999;DHT22;51319;52.162;5.302;2023-08-08T00:08:07;14.90;99.90
43999;DHT22;51319;52.162;5.302;2023-08-08T00:10:34;15.00;99.90
43999;DHT22;51319;52.162;5.302;2023-08-08T00:13:01;15.00;99.90
43999;DHT22;51319;52.162;5.302;2023-08-08T00:15:28;15.00;99.90
43999;DHT22;51319;52.162;5.302;2023-08-08T00:17:55;15.10;99.90
43999;DHT22;51319;52.162;5.302;2023-08-08T00:20:22;15.10;99.90
43999;DHT22;51319;52.162;5.302;2023-08-08T00:22:49;15.10;99.90
43999;DHT22;51319;52.162;5.302;2023-08-08T00:25:16;15.10;99.90
43999;DHT22;51319;52.162;5.302;2023-08-08T00:27:43;15.10;99.90
43999;DHT22;51319;52.162;5.302;2023-08-08T00:30:11;15.10;99.90
43999;DHT22;51319;52.162;5.302;2023-08-08T00:32:40;15.10;99.90
43999;DHT22;51319;52.162;5.302;2023-08-08T00:35:07;15.10;99.90
43999;DHT22;51319;52.162;5.302;2023-08-08T00:37:35;15.10;99.90
43999;DHT22;51319;52.162;5.302;2023-08-08T00:40:02;15.10;99.90
43999;DHT22;51319;52.162;5.302;2023-08-08T00:42:29;15.10;99.90
43999;DHT22;51319;52.162;5.302;2023-08-08T00:44:58;15.10;99.90
43999;DHT22;51319;52.162;5.302;2023-08-08T00:47:31;15.10;99.90
43999;DHT22;51319;52.162;5.302;2023-08-08T00:50:01;15.10;99.90
43999;DHT22;51319;52.162;5.302;2023-08-08T00:52:29;15.10;99.90
43999;DHT22;51319;52.162;5.302;2023-08-08T00:54:57;15.10;99.90
43999;DHT22;51319;52.162;5.302;2023-08-08T00:57:24;15.10;99.90
43999;DHT22;51319;52.162;5.302;2023-08-08T00:59:51;15.10;99.90
43999;DHT22;51319;52.162;5.302;2023-08-08T01:02:18;15.20;99.90
43999;DHT22;51319;52.162;5.302;2023-08-08T01:04:45;15.20;99.90
43999;DHT22;51319;52.162;5.302;2023-08-08T01:07:52;15.20;99.90
43999;DHT22;51319;52.162;5.302;2023-08-08T01:10:34;15.20;99.90
43999;DHT22;51319;52.162;5.302;2023-08-08T01:13:07;15.20;99.90
43999;DHT22;51319;52.162;5.302;2023-08-08T01:15:36;15.20;99.90
43999;DHT22;51319;52.162;5.302;2023-08-08T01:18:08;15.30;99.90
43999;DHT22;51319;52.162;5.302;2023-08-08T01:20:37;15.30;99.90
43999;DHT22;51319;52.162;5.302;2023-08-08T01:25:44;15.30;99.90
43999;DHT22;51319;52.162;5.302;2023-08-08T01:28:11;15.30;99.90
43999;DHT22;51319;52.162;5.302;2023-08-08T01:30:38;15.30;99.90
43999;DHT22;51319;52.162;5.302;2023-08-08T01:33:06;15.20;99.90
43999;DHT22;51319;52.162;5.302;2023-08-08T01:35:37;15.20;99.90
43999;DHT22;51319;52.162;5.302;2023-08-08T01:38:17;15.20;99.90
43999;DHT22;51319;52.162;5.302;2023-08-08T01:40:46;15.10;99.90
43999;DHT22;51319;52.162;5.302;2023-08-08T01:43:15;15.10;99.90
43999;DHT22;51319;52.162;5.302;2023-08-08T01:45:44;15.10;99.90
43999;DHT22;51319;52.162;5.302;2023-08-08T01:48:12;15.10;99.90
43999;DHT22;51319;52.162;5.302;2023-08-08T01:50:39;15.10;99.90
43999;DHT22;51319;52.162;5.302;2023-08-08T01:53:06;15.10;99.90
43999;DHT22;51319;52.162;5.302;2023-08-08T01:55:33;15.20;99.90
43999;DHT22;51319;52.162;5.302;2023-08-08T01:58:00;15.20;99.90
43999;DHT22;51319;52.162;5.302;2023-08-08T02:00:27;15.10;99.90
43999;DHT22;51319;52.162;5.302;2023-08-08T02:02:55;15.10;99.90
43999;DHT22;51319;52.162;5.302;2023-08-08T02:05:22;15.10;99.90
43999;DHT22;51319;52.162;5.302;2023-08-08T02:07:49;15.20;99.90
43999;DHT22;51319;52.162;5.302;2023-08-08T02:10:16;15.20;99.90
43999;DHT22;51319;52.162;5.302;2023-08-08T02:12:43;15.20;99.90
43999;DHT22;51319;52.162;5.302;2023-08-08T02:15:10;15.20;99.90
43999;DHT22;51319;52.162;5.302;2023-08-08T02:17:38;15.20;99.90
43999;DHT22;51319;52.162;5.302;2023-08-08T02:20:06;15.20;99.90
43999;DHT22;51319;52.162;5.302;2023-08-08T02:22:34;15.20;99.90
43999;DHT22;51319;52.162;5.302;2023-08-08T02:25:01;15.20;99.90
43999;DHT22;51319;52.162;5.302;2023-08-08T02:27:28;15.10;99.90
43999;DHT22;51319;52.162;5.302;2023-08-08T02:29:55;15.10;99.90
43999;DHT22;51319;52.162;5.302;2023-08-08T02:32:24;15.00;99.90
43999;DHT22;51319;52.162;5.302;2023-08-08T02:34:51;15.10;99.90
43999;DHT22;51319;52.162;5.302;2023-08-08T02:37:18;15.00;99.90
43999;DHT22;51319;52.162;5.302;2023-08-08T02:39:45;15.00;99.90
43999;DHT22;51319;52.162;5.302;2023-08-08T02:42:12;15.00;99.90
43999;DHT22;51319;52.162;5.302;2023-08-08T02:44:40;14.90;99.90
43999;DHT22;51319;52.162;5.302;2023-08-08T02:47:07;14.70;99.90
43999;DHT22;51319;52.162;5.302;2023-08-08T02:49:34;14.70;99.90
43999;DHT22;51319;52.162;5.302;2023-08-08T02:52:01;14.60;99.90
43999;DHT22;51319;52.162;5.302;2023-08-08T02:54:28;14.60;99.90
43999;DHT22;51319;52.162;5.302;2023-08-08T02:56:55;14.70;99.90
43999;DHT22;51319;52.162;5.302;2023-08-08T02:59:22;14.70;99.90
43999;DHT22;51319;52.162;5.302;2023-08-08T03:01:50;14.70;99.90
43999;DHT22;51319;52.162;5.302;2023-08-08T03:04:17;14.70;99.90
43999;DHT22;51319;52.162;5.302;2023-08-08T03:06:44;14.70;99.90
43999;DHT22;51319;52.162;5.302;2023-08-08T03:09:11;14.70;99.90
43999;DHT22;51319;52.162;5.302;2023-08-08T03:11:38;14.70;99.90
43999;DHT22;51319;52.162;5.302;2023-08-08T03:14:08;14.70;99.90
43999;DHT22;51319;52.162;5.302;2023-08-08T03:16:35;14.70;99.90
43999;DHT22;51319;52.162;5.302;2023-08-08T03:19:02;14.70;99.90
43999;DHT22;51319;52.162;5.302;2023-08-08T03:21:30;14.70;99.90
43999;DHT22;51319;52.162;5.302;2023-08-08T03:23:57;14.80;99.90
43999;DHT22;51319;52.162;5.302;2023-08-08T03:26:24;14.80;99.90
43999;DHT22;51319;52.162;5.302;2023-08-08T03:28:51;14.80;99.90
43999;DHT22;51319;52.162;5.302;2023-08-08T03:31:21;14.70;99.90
43999;DHT22;51319;52.162;5.302;2023-08-08T03:33:48;14.70;99.90
43999;DHT22;51319;52.162;5.302;2023-08-08T03:36:16;14.70;99.90
43999;DHT22;51319;52.162;5.302;2023-08-08T03:38:43;14.60;99.90
43999;DHT22;51319;52.162;5.302;2023-08-08T03:41:13;14.50;99.90
43999;DHT22;51319;52.162;5.302;2023-08-08T03:43:40;14.50;99.90
43999;DHT22;51319;52.162;5.302;2023-08-08T03:46:07;14.50;99.90
43999;DHT22;51319;52.162;5.302;2023-08-08T03:48:34;14.40;99.90
43999;DHT22;51319;52.162;5.302;2023-08-08T03:51:01;14.30;99.90
43999;DHT22;51319;52.162;5.302;2023-08-08T03:53:29;14.30;99.90
43999;DHT22;51319;52.162;5.302;2023-08-08T03:55:56;14.30;99.90
43999;DHT22;51319;52.162;5.302;2023-08-08T03:58:23;14.30;99.90
43999;DHT22;51319;52.162;5.302;2023-08-08T04:00:51;14.40;99.90
43999;DHT22;51319;52.162;5.302;2023-08-08T04:03:18;14.40;99.90
43999;DHT22;51319;52.162;5.302;2023-08-08T04:05:46;14.40;99.90
43999;DHT22;51319;52.162;5.302;2023-08-08T04:08:14;14.40;99.90
43999;DHT22;51319;52.162;5.302;2023-08-08T04:10:42;14.30;99.90
43999;DHT22;51319;52.162;5.302;2023-08-08T04:13:09;14.30;99.90
43999;DHT22;51319;52.162;5.302;2023-08-08T04:15:36;14.20;99.90
43999;DHT22;51319;52.162;5.302;2023-08-08T04:18:04;14.10;99.90
43999;DHT22;51319;52.162;5.302;2023-08-08T04:20:33;14.10;99.90
43999;DHT22;51319;52.162;5.302;2023-08-08T04:23:01;14.00;99.90
43999;DHT22;51319;52.162;5.302;2023-08-08T04:25:28;14.00;99.90
43999;DHT22;51319;52.162;5.302;2023-08-08T04:27:55;13.90;99.90
43999;DHT22;51319;52.162;5.302;2023-08-08T04:30:22;13.90;99.90
43999;DHT22;51319;52.162;5.302;2023-08-08T04:32:50;13.90;99.90
43999;DHT22;51319;52.162;5.302;2023-08-08T04:35:17;13.80;99.90
43999;DHT22;51319;52.162;5.302;2023-08-08T04:37:44;13.80;99.90
43999;DHT22;51319;52.162;5.302;2023-08-08T04:40:11;13.90;99.90
43999;DHT22;51319;52.162;5.302;2023-08-08T04:42:40;13.90;99.90
43999;DHT22;51319;52.162;5.302;2023-08-08T04:45:08;14.00;99.90
43999;DHT22;51319;52.162;5.302;2023-08-08T04:47:35;14.00;99.90
43999;DHT22;51319;52.162;5.302;2023-08-08T04:50:02;14.10;99.90
43999;DHT22;51319;52.162;5.302;2023-08-08T04:52:29;14.10;99.90
43999;DHT22;51319;52.162;5.302;2023-08-08T04:54:56;14.10;99.90
43999;DHT22;51319;52.162;5.302;2023-08-08T04:57:23;14.00;99.90
43999;DHT22;51319;52.162;5.302;2023-08-08T04:59:50;14.00;99.90
43999;DHT22;51319;52.162;5.302;2023-08-08T05:02:17;14.00;99.90
43999;DHT22;51319;52.162;5.302;2023-08-08T05:04:44;14.10;99.90
43999;DHT22;51319;52.162;5.302;2023-08-08T05:07:11;14.10;99.90
43999;DHT22;51319;52.162;5.302;2023-08-08T05:09:38;14.10;99.90
43999;DHT22;51319;52.162;5.302;2023-08-08T05:12:07;14.10;99.90
43999;DHT22;51319;52.162;5.302;2023-08-08T05:14:34;14.10;99.90
43999;DHT22;51319;52.162;5.302;2023-08-08T05:17:02;14.20;99.90
43999;DHT22;51319;52.162;5.302;2023-08-08T05:19:29;14.20;99.90
43999;DHT22;51319;52.162;5.302;2023-08-08T05:21:57;14.20;99.90
43999;DHT22;51319;52.162;5.302;2023-08-08T05:24:26;14.20;99.90
43999;DHT22;51319;52.162;5.302;2023-08-08T05:26:53;14.10;99.90
43999;DHT22;51319;52.162;5.302;2023-08-08T05:29:20;14.10;99.90
43999;DHT22;51319;52.162;5.302;2023-08-08T05:31:47;14.10;99.90
43999;DHT22;51319;52.162;5.302;2023-08-08T05:34:14;14.30;99.90
43999;DHT22;51319;52.162;5.302;2023-08-08T05:36:41;14.50;99.90
43999;DHT22;51319;52.162;5.302;2023-08-08T05:39:08;14.80;99.90
43999;DHT22;51319;52.162;5.302;2023-08-08T05:41:36;15.00;99.90
43999;DHT22;51319;52.162;5.302;2023-08-08T05:44:03;15.30;99.90
43999;DHT22;51319;52.162;5.302;2023-08-08T05:46:30;15.50;99.90
43999;DHT22;51319;52.162;5.302;2023-08-08T05:48:57;15.80;99.90
43999;DHT22;51319;52.162;5.302;2023-08-08T05:51:24;16.00;99.90
43999;DHT22;51319;52.162;5.302;2023-08-08T05:53:52;16.20;99.90
43999;DHT22;51319;52.162;5.302;2023-08-08T05:56:19;16.50;99.90
43999;DHT22;51319;52.162;5.302;2023-08-08T05:58:46;16.80;99.20
43999;DHT22;51319;52.162;5.302;2023-08-08T06:01:13;17.00;98.30
43999;DHT22;51319;52.162;5.302;2023-08-08T06:03:40;17.30;97.40
43999;DHT22;51319;52.162;5.302;2023-08-08T06:06:08;17.50;96.30
43999;DHT22;51319;52.162;5.302;2023-08-08T06:08:35;17.80;95.30
43999;DHT22;51319;52.162;5.302;2023-08-08T06:11:02;18.00;94.50
43999;DHT22;51319;52.162;5.302;2023-08-08T06:13:29;18.30;93.60
43999;DHT22;51319;52.162;5.302;2023-08-08T06:15:56;18.60;92.50
43999;DHT22;51319;52.162;5.302;2023-08-08T06:18:24;18.90;91.50
43999;DHT22;51319;52.162;5.302;2023-08-08T06:20:52;19.10;90.30
43999;DHT22;51319;52.162;5.302;2023-08-08T06:23:19;19.30;88.70
43999;DHT22;51319;52.162;5.302;2023-08-08T06:25:46;19.50;87.30
43999;DHT22;51319;52.162;5.302;2023-08-08T06:28:14;19.90;86.20
43999;DHT22;51319;52.162;5.302;2023-08-08T06:30:42;20.10;84.90
43999;DHT22;51319;52.162;5.302;2023-08-08T06:33:09;20.40;83.30
43999;DHT22;51319;52.162;5.302;2023-08-08T06:35:37;20.70;81.80
43999;DHT22;51319;52.162;5.302;2023-08-08T06:38:04;21.00;79.90
43999;DHT22;51319;52.162;5.302;2023-08-08T06:40:31;21.30;78.60
43999;DHT22;51319;52.162;5.302;2023-08-08T06:42:58;21.40;76.90
43999;DHT22;51319;52.162;5.302;2023-08-08T06:45:25;21.70;75.90
43999;DHT22;51319;52.162;5.302;2023-08-08T06:47:53;21.90;75.00
43999;DHT22;51319;52.162;5.302;2023-08-08T06:50:20;22.20;73.60
43999;DHT22;51319;52.162;5.302;2023-08-08T06:52:47;22.50;71.70
43999;DHT22;51319;52.162;5.302;2023-08-08T06:55:14;22.70;70.80
43999;DHT22;51319;52.162;5.302;2023-08-08T06:57:41;22.90;69.70
43999;DHT22;51319;52.162;5.302;2023-08-08T07:00:09;23.20;68.30
43999;DHT22;51319;52.162;5.302;2023-08-08T07:02:41;23.30;67.00
43999;DHT22;51319;52.162;5.302;2023-08-08T07:05:13;23.50;66.50
43999;DHT22;51319;52.162;5.302;2023-08-08T07:07:40;23.60;65.70
43999;DHT22;51319;52.162;5.302;2023-08-08T07:10:07;23.90;65.30
43999;DHT22;51319;52.162;5.302;2023-08-08T07:12:34;24.10;63.80
43999;DHT22;51319;52.162;5.302;2023-08-08T07:15:02;24.40;63.00
43999;DHT22;51319;52.162;5.302;2023-08-08T07:17:29;24.70;62.20
43999;DHT22;51319;52.162;5.302;2023-08-08T07:19:56;24.80;61.00
43999;DHT22;51319;52.162;5.302;2023-08-08T07:22:26;25.00;60.80
43999;DHT22;51319;52.162;5.302;2023-08-08T07:24:53;25.20;59.10
43999;DHT22;51319;52.162;5.302;2023-08-08T07:27:20;25.20;58.80
43999;DHT22;51319;52.162;5.302;2023-08-08T07:29:47;25.30;57.90
43999;DHT22;51319;52.162;5.302;2023-08-08T07:32:16;25.40;57.90
43999;DHT22;51319;52.162;5.302;2023-08-08T07:34:43;25.90;57.30
43999;DHT22;51319;52.162;5.302;2023-08-08T07:37:10;26.20;56.00
43999;DHT22;51319;52.162;5.302;2023-08-08T07:39:37;26.00;56.10
43999;DHT22;51319;52.162;5.302;2023-08-08T07:42:04;25.10;56.30
43999;DHT22;51319;52.162;5.302;2023-08-08T07:44:31;24.20;58.10
43999;DHT22;51319;52.162;5.302;2023-08-08T07:47:01;24.50;58.40
43999;DHT22;51319;52.162;5.302;2023-08-08T07:49:28;25.40;57.20
43999;DHT22;51319;52.162;5.302;2023-08-08T07:51:56;26.10;55.20
43999;DHT22;51319;52.162;5.302;2023-08-08T07:54:24;26.40;53.10
43999;DHT22;51319;52.162;5.302;2023-08-08T07:56:51;25.70;54.20
43999;DHT22;51319;52.162;5.302;2023-08-08T07:59:18;25.60;54.10
43999;DHT22;51319;52.162;5.302;2023-08-08T08:01:46;25.60;54.50
43999;DHT22;51319;52.162;5.302;2023-08-08T08:04:13;25.50;53.00
43999;DHT22;51319;52.162;5.302;2023-08-08T08:06:42;25.40;54.30
43999;DHT22;51319;52.162;5.302;2023-08-08T08:09:10;25.20;54.20
43999;DHT22;51319;52.162;5.302;2023-08-08T08:11:37;25.60;53.50
43999;DHT22;51319;52.162;5.302;2023-08-08T08:14:04;25.60;53.90
43999;DHT22;51319;52.162;5.302;2023-08-08T08:16:32;26.50;53.30
43999;DHT22;51319;52.162;5.302;2023-08-08T08:18:59;26.80;51.30
43999;DHT22;51319;52.162;5.302;2023-08-08T08:21:26;26.50;51.40
43999;DHT22;51319;52.162;5.302;2023-08-08T08:23:53;27.00;52.40
43999;DHT22;51319;52.162;5.302;2023-08-08T08:26:20;27.50;50.40
43999;DHT22;51319;52.162;5.302;2023-08-08T08:34:39;28.30;49.50
43999;DHT22;51319;52.162;5.302;2023-08-08T08:37:06;27.40;49.70
43999;DHT22;51319;52.162;5.302;2023-08-08T08:39:33;26.40;51.20
43999;DHT22;51319;52.162;5.302;2023-08-08T08:42:02;25.90;51.90
43999;DHT22;51319;52.162;5.302;2023-08-08T08:44:32;26.30;50.60
43999;DHT22;51319;52.162;5.302;2023-08-08T08:47:03;26.20;49.80
43999;DHT22;51319;52.162;5.302;2023-08-08T08:49:31;26.50;49.00
43999;DHT22;51319;52.162;5.302;2023-08-08T08:51:59;25.80;49.20
43999;DHT22;51319;52.162;5.302;2023-08-08T08:54:32;25.60;50.20
43999;DHT22;51319;52.162;5.302;2023-08-08T08:57:00;25.50;50.50
43999;DHT22;51319;52.162;5.302;2023-08-08T08:59:27;26.00;50.60
43999;DHT22;51319;52.162;5.302;2023-08-08T09:01:55;25.70;50.30
43999;DHT22;51319;52.162;5.302;2023-08-08T09:04:23;25.10;50.60
43999;DHT22;51319;52.162;5.302;2023-08-08T09:06:51;24.30;53.10
43999;DHT22;51319;52.162;5.302;2023-08-08T09:09:18;23.70;54.10
43999;DHT22;51319;52.162;5.302;2023-08-08T09:11:50;24.20;54.20
43999;DHT22;51319;52.162;5.302;2023-08-08T09:14:22;24.00;53.70
43999;DHT22;51319;52.162;5.302;2023-08-08T09:16:50;23.70;54.10
43999;DHT22;51319;52.162;5.302;2023-08-08T09:19:20;23.40;54.90
43999;DHT22;51319;52.162;5.302;2023-08-08T09:21:48;23.30;56.10
43999;DHT22;51319;52.162;5.302;2023-08-08T09:24:15;24.40;55.00
43999;DHT22;51319;52.162;5.302;2023-08-08T09:26:43;25.90;53.30
43999;DHT22;51319;52.162;5.302;2023-08-08T09:29:13;27.20;50.80
43999;DHT22;51319;52.162;5.302;2023-08-08T09:31:41;27.90;48.60
43999;DHT22;51319;52.162;5.302;2023-08-08T09:34:09;27.60;48.00
43999;DHT22;51319;52.162;5.302;2023-08-08T09:36:36;27.40;49.30
43999;DHT22;51319;52.162;5.302;2023-08-08T09:39:04;27.20;47.90
43999;DHT22;51319;52.162;5.302;2023-08-08T09:41:32;26.30;48.30
43999;DHT22;51319;52.162;5.302;2023-08-08T09:43:59;26.00;49.60
43999;DHT22;51319;52.162;5.302;2023-08-08T09:46:30;26.20;49.30
43999;DHT22;51319;52.162;5.302;2023-08-08T09:49:00;25.80;50.20
43999;DHT22;51319;52.162;5.302;2023-08-08T09:51:28;26.00;50.00
43999;DHT22;51319;52.162;5.302;2023-08-08T09:53:56;26.90;49.80
43999;DHT22;51319;52.162;5.302;2023-08-08T09:56:26;27.50;48.90
43999;DHT22;51319;52.162;5.302;2023-08-08T09:58:53;28.40;47.70
43999;DHT22;51319;52.162;5.302;2023-08-08T10:01:20;28.80;46.50
43999;DHT22;51319;52.162;5.302;2023-08-08T10:03:49;28.30;46.10
43999;DHT22;51319;52.162;5.302;2023-08-08T10:06:18;27.50;47.00
43999;DHT22;51319;52.162;5.302;2023-08-08T10:08:45;27.80;47.20
43999;DHT22;51319;52.162;5.302;2023-08-08T10:11:13;29.00;45.50
43999;DHT22;51319;52.162;5.302;2023-08-08T10:13:49;29.50;44.20
43999;DHT22;51319;52.162;5.302;2023-08-08T10:16:17;29.20;43.00
43999;DHT22;51319;52.162;5.302;2023-08-08T10:19:02;29.10;43.10
43999;DHT22;51319;52.162;5.302;2023-08-08T10:21:41;29.00;42.70
43999;DHT22;51319;52.162;5.302;2023-08-08T10:24:09;28.60;42.90
43999;DHT22;51319;52.162;5.302;2023-08-08T10:27:12;28.40;43.20
43999;DHT22;51319;52.162;5.302;2023-08-08T10:29:39;28.20;44.50
43999;DHT22;51319;52.162;5.302;2023-08-08T10:32:07;27.90;44.80
43999;DHT22;51319;52.162;5.302;2023-08-08T10:34:39;27.80;45.80
43999;DHT22;51319;52.162;5.302;2023-08-08T10:37:13;28.70;45.60
43999;DHT22;51319;52.162;5.302;2023-08-08T10:42:22;28.60;44.10
43999;DHT22;51319;52.162;5.302;2023-08-08T10:44:59;28.50;44.10
43999;DHT22;51319;52.162;5.302;2023-08-08T10:47:36;28.10;42.40
43999;DHT22;51319;52.162;5.302;2023-08-08T10:50:21;27.50;43.20
43999;DHT22;51319;52.162;5.302;2023-08-08T10:55:47;26.70;45.80
43999;DHT22;51319;52.162;5.302;2023-08-08T10:58:15;26.70;46.80
43999;DHT22;51319;52.162;5.302;2023-08-08T11:00:46;26.70;46.80
43999;DHT22;51319;52.162;5.302;2023-08-08T11:03:14;26.50;47.20
43999;DHT22;51319;52.162;5.302;2023-08-08T11:05:46;26.10;47.20
43999;DHT22;51319;52.162;5.302;2023-08-08T11:08:17;25.90;47.70
43999;DHT22;51319;52.162;5.302;2023-08-08T11:10:45;25.90;47.80
43999;DHT22;51319;52.162;5.302;2023-08-08T11:13:12;25.90;48.60
43999;DHT22;51319;52.162;5.302;2023-08-08T11:15:39;26.00;48.90
43999;DHT22;51319;52.162;5.302;2023-08-08T11:18:06;26.20;48.70
43999;DHT22;51319;52.162;5.302;2023-08-08T11:20:36;26.20;49.30
43999;DHT22;51319;52.162;5.302;2023-08-08T11:23:04;26.60;47.30
43999;DHT22;51319;52.162;5.302;2023-08-08T11:25:40;26.50;46.60
43999;DHT22;51319;52.162;5.302;2023-08-08T11:28:09;26.00;46.70
43999;DHT22;51319;52.162;5.302;2023-08-08T11:30:41;25.70;47.00
43999;DHT22;51319;52.162;5.302;2023-08-08T11:33:10;25.80;48.00
43999;DHT22;51319;52.162;5.302;2023-08-08T11:35:45;26.50;48.80
43999;DHT22;51319;52.162;5.302;2023-08-08T11:38:16;27.40;46.20
43999;DHT22;51319;52.162;5.302;2023-08-08T11:40:44;27.60;45.60
43999;DHT22;51319;52.162;5.302;2023-08-08T11:43:12;27.70;46.20
43999;DHT22;51319;52.162;5.302;2023-08-08T11:45:40;27.40;46.00
43999;DHT22;51319;52.162;5.302;2023-08-08T11:48:10;27.40;46.50
43999;DHT22;51319;52.162;5.302;2023-08-08T11:50:37;27.60;46.20
43999;DHT22;51319;52.162;5.302;2023-08-08T11:53:05;28.30;46.90
43999;DHT22;51319;52.162;5.302;2023-08-08T11:55:33;28.10;45.90
43999;DHT22;51319;52.162;5.302;2023-08-08T11:58:00;27.70;46.20
43999;DHT22;51319;52.162;5.302;2023-08-08T12:00:29;27.40;46.00
43999;DHT22;51319;52.162;5.302;2023-08-08T12:02:59;27.10;46.00
43999;DHT22;51319;52.162;5.302;2023-08-08T12:05:27;26.70;47.00
43999;DHT22;51319;52.162;5.302;2023-08-08T12:07:55;27.00;47.40
43999;DHT22;51319;52.162;5.302;2023-08-08T12:10:23;28.00;47.20
43999;DHT22;51319;52.162;5.302;2023-08-08T12:12:55;28.40;45.30
43999;DHT22;51319;52.162;5.302;2023-08-08T12:15:34;27.60;45.90
43999;DHT22;51319;52.162;5.302;2023-08-08T12:18:03;27.00;47.00
43999;DHT22;51319;52.162;5.302;2023-08-08T12:20:32;26.70;47.50
43999;DHT22;51319;52.162;5.302;2023-08-08T12:22:59;26.40;47.90
43999;DHT22;51319;52.162;5.302;2023-08-08T12:25:27;26.40;48.10
43999;DHT22;51319;52.162;5.302;2023-08-08T12:27:54;26.10;47.70
43999;DHT22;51319;52.162;5.302;2023-08-08T12:30:21;26.20;48.80
43999;DHT22;51319;52.162;5.302;2023-08-08T12:32:48;26.10;49.10
43999;DHT22;51319;52.162;5.302;2023-08-08T12:35:16;26.90;49.10
43999;DHT22;51319;52.162;5.302;2023-08-08T12:37:43;27.10;48.40
43999;DHT22;51319;52.162;5.302;2023-08-08T12:40:11;27.00;48.10
43999;DHT22;51319;52.162;5.302;2023-08-08T12:42:38;27.00;48.60
43999;DHT22;51319;52.162;5.302;2023-08-08T12:45:10;26.80;48.20
43999;DHT22;51319;52.162;5.302;2023-08-08T12:47:37;26.40;49.20
43999;DHT22;51319;52.162;5.302;2023-08-08T12:50:05;26.40;49.70
43999;DHT22;51319;52.162;5.302;2023-08-08T12:52:33;26.60;48.70
43999;DHT22;51319;52.162;5.302;2023-08-08T12:55:00;26.80;47.90
43999;DHT22;51319;52.162;5.302;2023-08-08T12:57:27;27.20;48.30
43999;DHT22;51319;52.162;5.302;2023-08-08T12:59:56;27.20;46.40
43999;DHT22;51319;52.162;5.302;2023-08-08T13:02:25;27.30;47.80
43999;DHT22;51319;52.162;5.302;2023-08-08T13:04:52;27.90;47.20
43999;DHT22;51319;52.162;5.302;2023-08-08T13:07:19;28.10;45.80
43999;DHT22;51319;52.162;5.302;2023-08-08T13:09:46;28.20;46.10
43999;DHT22;51319;52.162;5.302;2023-08-08T13:12:13;27.90;45.60
43999;DHT22;51319;52.162;5.302;2023-08-08T13:14:40;28.10;45.30
43999;DHT22;51319;52.162;5.302;2023-08-08T13:17:07;28.40;44.90
43999;DHT22;51319;52.162;5.302;2023-08-08T13:19:34;28.80;44.70
43999;DHT22;51319;52.162;5.302;2023-08-08T13:22:01;28.90;44.70
43999;DHT22;51319;52.162;5.302;2023-08-08T13:24:29;28.50;44.60
43999;DHT22;51319;52.162;5.302;2023-08-08T13:26:56;28.60;44.90
43999;DHT22;51319;52.162;5.302;2023-08-08T13:29:23;28.20;44.80
43999;DHT22;51319;52.162;5.302;2023-08-08T13:31:50;27.60;44.60
43999;DHT22;51319;52.162;5.302;2023-08-08T13:34:18;26.80;46.00
43999;DHT22;51319;52.162;5.302;2023-08-08T13:36:45;26.20;48.20
43999;DHT22;51319;52.162;5.302;2023-08-08T13:39:12;25.80;48.50
43999;DHT22;51319;52.162;5.302;2023-08-08T13:41:40;25.50;48.80
43999;DHT22;51319;52.162;5.302;2023-08-08T13:44:07;25.30;49.30
43999;DHT22;51319;52.162;5.302;2023-08-08T13:46:34;25.30;49.50
43999;DHT22;51319;52.162;5.302;2023-08-08T13:49:01;25.30;50.50
43999;DHT22;51319;52.162;5.302;2023-08-08T13:51:28;25.30;50.80
43999;DHT22;51319;52.162;5.302;2023-08-08T13:53:55;25.40;50.90
43999;DHT22;51319;52.162;5.302;2023-08-08T13:56:22;25.50;50.00
43999;DHT22;51319;52.162;5.302;2023-08-08T14:04:20;25.00;50.20
43999;DHT22;51319;52.162;5.302;2023-08-08T14:06:47;24.80;50.50
43999;DHT22;51319;52.162;5.302;2023-08-08T14:09:14;24.70;50.70
43999;DHT22;51319;52.162;5.302;2023-08-08T14:11:45;24.90;50.90
43999;DHT22;51319;52.162;5.302;2023-08-08T14:14:13;24.90;51.00
43999;DHT22;51319;52.162;5.302;2023-08-08T14:16:40;24.80;50.50
43999;DHT22;51319;52.162;5.302;2023-08-08T14:19:08;24.60;50.60
43999;DHT22;51319;52.162;5.302;2023-08-08T14:21:35;24.40;50.90
43999;DHT22;51319;52.162;5.302;2023-08-08T14:24:02;24.40;51.40
43999;DHT22;51319;52.162;5.302;2023-08-08T14:26:30;24.40;52.00
43999;DHT22;51319;52.162;5.302;2023-08-08T14:28:57;24.30;51.90
43999;DHT22;51319;52.162;5.302;2023-08-08T14:31:24;24.30;51.90
43999;DHT22;51319;52.162;5.302;2023-08-08T14:33:51;24.20;52.00
43999;DHT22;51319;52.162;5.302;2023-08-08T14:36:19;24.30;52.20
43999;DHT22;51319;52.162;5.302;2023-08-08T14:38:46;24.40;51.40
43999;DHT22;51319;52.162;5.302;2023-08-08T15:39:05;22.70;53.60
43999;DHT22;51319;52.162;5.302;2023-08-08T15:41:32;22.60;54.40
43999;DHT22;51319;52.162;5.302;2023-08-08T16:11:22;21.70;57.10
43999;DHT22;51319;52.162;5.302;2023-08-08T16:13:50;21.70;57.10
43999;DHT22;51319;52.162;5.302;2023-08-08T16:16:16;21.60;57.20
43999;DHT22;51319;52.162;5.302;2023-08-08T16:18:44;21.60;57.00
43999;DHT22;51319;52.162;5.302;2023-08-08T16:21:11;21.70;57.20
43999;DHT22;51319;52.162;5.302;2023-08-08T16:23:38;21.70;56.90
43999;DHT22;51319;52.162;5.302;2023-08-08T16:26:05;21.60;56.90
43999;DHT22;51319;52.162;5.302;2023-08-08T16:28:32;21.60;57.80
43999;DHT22;51319;52.162;5.302;2023-08-08T16:30:59;21.50;57.50
43999;DHT22;51319;52.162;5.302;2023-08-08T16:33:26;21.50;58.20
43999;DHT22;51319;52.162;5.302;2023-08-08T16:35:56;21.50;58.30
43999;DHT22;51319;52.162;5.302;2023-08-08T16:38:23;21.40;58.60
43999;DHT22;51319;52.162;5.302;2023-08-08T16:40:54;21.40;59.00
43999;DHT22;51319;52.162;5.302;2023-08-08T16:43:26;21.40;59.10
43999;DHT22;51319;52.162;5.302;2023-08-08T16:45:59;21.30;59.40
43999;DHT22;51319;52.162;5.302;2023-08-08T16:48:33;21.30;59.70
43999;DHT22;51319;52.162;5.302;2023-08-08T16:51:00;21.20;59.80
43999;DHT22;51319;52.162;5.302;2023-08-08T16:53:28;21.20;60.30
43999;DHT22;51319;52.162;5.302;2023-08-08T16:55:57;21.10;60.30
43999;DHT22;51319;52.162;5.302;2023-08-08T16:58:31;20.90;60.90
43999;DHT22;51319;52.162;5.302;2023-08-08T17:01:02;20.80;60.90
43999;DHT22;51319;52.162;5.302;2023-08-08T17:03:30;20.70;61.30
43999;DHT22;51319;52.162;5.302;2023-08-08T17:05:57;20.60;61.90
43999;DHT22;51319;52.162;5.302;2023-08-08T17:08:25;20.50;62.10
43999;DHT22;51319;52.162;5.302;2023-08-08T17:10:55;20.40;62.50
43999;DHT22;51319;52.162;5.302;2023-08-08T17:13:23;20.30;63.40
43999;DHT22;51319;52.162;5.302;2023-08-08T17:15:54;20.30;64.90
43999;DHT22;51319;52.162;5.302;2023-08-08T17:18:21;20.20;66.10
43999;DHT22;51319;52.162;5.302;2023-08-08T17:20:52;20.00;67.60